createdAt,value
2018-05-06T00:02:18.735Z,88.30
2018-05-06T00:04:45.657Z,88.40
2018-05-06T00:07:12.582Z,88.80
2018-05-06T00:09:39.492Z,89.70
2018-05-06T00:12:06.421Z,89.20
2018-05-06T00:14:33.267Z,89.50
2018-05-06T00:17:00.197Z,90.00
2018-05-06T00:19:27.180Z,90.10
2018-05-06T00:21:54.072Z,90.60
2018-05-06T00:24:20.984Z,90.70
2018-05-06T00:26:47.836Z,90.90
2018-05-06T00:29:14.749Z,91.20
2018-05-06T00:31:41.597Z,91.40
2018-05-06T00:34:08.509Z,91.70
2018-05-06T00:36:35.468Z,91.70
2018-05-06T00:39:02.360Z,92.00
2018-05-06T00:41:29.315Z,92.20
2018-05-06T00:43:56.219Z,92.40
2018-05-06T00:46:23.189Z,92.60
2018-05-06T00:48:50.105Z,92.90
2018-05-06T00:51:17.024Z,93.00
2018-05-06T00:53:43.934Z,93.00
2018-05-06T00:56:10.777Z,93.20
2018-05-06T00:58:37.709Z,93.50
2018-05-06T01:01:04.640Z,93.60
2018-05-06T01:03:31.577Z,93.80
2018-05-06T01:05:58.642Z,94.20
2018-05-06T01:08:25.514Z,94.30
2018-05-06T01:10:52.501Z,94.60
2018-05-06T01:13:19.454Z,94.00
2018-05-06T01:15:46.320Z,94.00
2018-05-06T01:18:13.229Z,94.00
2018-05-06T01:20:40.897Z,93.90
2018-05-06T01:23:07.813Z,93.90
2018-05-06T01:25:34.668Z,94.20
2018-05-06T01:28:02.383Z,94.50
2018-05-06T01:30:29.300Z,94.50
2018-05-06T01:32:56.150Z,94.90
2018-05-06T01:35:23.066Z,94.80
2018-05-06T01:37:49.908Z,95.00
2018-05-06T01:40:17.720Z,95.00
2018-05-06T01:42:44.622Z,95.00
2018-05-06T01:45:12.220Z,95.00
2018-05-06T01:47:39.138Z,95.00
2018-05-06T01:50:06.058Z,95.30
2018-05-06T01:52:32.973Z,95.30
2018-05-06T01:54:59.980Z,95.60
2018-05-06T01:57:27.580Z,95.50
2018-05-06T01:59:54.515Z,95.50
2018-05-06T02:02:21.365Z,95.50
2018-05-06T02:04:48.209Z,95.50
2018-05-06T02:07:15.193Z,95.60
2018-05-06T02:09:42.050Z,95.50
2018-05-06T02:12:08.958Z,95.50
2018-05-06T02:14:35.871Z,95.50
2018-05-06T02:17:02.789Z,95.70
2018-05-06T02:19:29.658Z,95.80
2018-05-06T02:21:56.593Z,95.80
2018-05-06T02:24:23.476Z,96.30
2018-05-06T02:26:50.382Z,96.40
2018-05-06T02:29:17.235Z,96.60
2018-05-06T02:31:44.159Z,96.80
2018-05-06T02:34:11.021Z,96.80
2018-05-06T02:36:37.888Z,96.70
2018-05-06T02:39:04.860Z,96.70
2018-05-06T02:41:31.713Z,96.70
2018-05-06T02:43:58.621Z,96.70
2018-05-06T02:46:25.485Z,96.80
2018-05-06T02:48:52.410Z,96.80
2018-05-06T02:51:19.331Z,96.90
2018-05-06T02:53:46.184Z,96.70
2018-05-06T02:56:13.100Z,96.60
2018-05-06T02:58:39.974Z,96.60
2018-05-06T03:01:06.981Z,96.50
2018-05-06T03:03:33.849Z,96.60
2018-05-06T03:06:01.505Z,96.80
2018-05-06T03:08:28.411Z,96.50
2018-05-06T03:10:55.278Z,96.40
2018-05-06T03:13:22.191Z,96.30
2018-05-06T03:15:49.037Z,96.20
2018-05-06T03:18:15.978Z,96.00
2018-05-06T03:20:42.910Z,96.10
2018-05-06T03:23:09.836Z,95.80
2018-05-06T03:25:36.696Z,95.70
2018-05-06T03:28:03.558Z,95.50
2018-05-06T03:30:30.473Z,95.80
2018-05-06T03:32:57.336Z,96.00
2018-05-06T03:35:24.268Z,96.20
2018-05-06T03:37:51.112Z,96.50
2018-05-06T03:40:18.083Z,96.70
2018-05-06T03:42:44.942Z,96.70
2018-05-06T03:45:11.870Z,96.80
2018-05-06T03:47:38.718Z,96.90
2018-05-06T03:50:05.596Z,96.90
2018-05-06T03:52:32.509Z,97.00
2018-05-06T03:54:59.352Z,97.00
2018-05-06T03:57:38.208Z,96.80
2018-05-06T04:00:17.272Z,96.70
2018-05-06T04:02:44.208Z,96.50
2018-05-06T04:05:11.078Z,96.50
2018-05-06T04:07:38.088Z,96.80
2018-05-06T04:10:04.949Z,97.10
2018-05-06T04:12:32.561Z,96.80
2018-05-06T04:14:59.504Z,96.80
2018-05-06T04:17:26.432Z,96.60
2018-05-06T04:19:53.301Z,96.40
2018-05-06T04:22:20.227Z,95.70
2018-05-06T04:24:47.076Z,95.80
2018-05-06T04:27:28.132Z,95.50
2018-05-06T04:29:55.925Z,95.50
2018-05-06T04:32:22.930Z,95.40
2018-05-06T04:34:49.786Z,95.10
2018-05-06T04:37:16.752Z,95.00
2018-05-06T04:39:43.628Z,94.20
2018-05-06T04:42:10.498Z,93.80
2018-05-06T04:44:37.436Z,93.30
2018-05-06T04:47:04.330Z,91.50
2018-05-06T04:49:31.387Z,85.40
2018-05-06T04:51:59.137Z,79.20
2018-05-06T04:54:26.011Z,79.20
2018-05-06T04:56:52.929Z,75.30
2018-05-06T04:59:19.916Z,69.90
2018-05-06T05:01:46.769Z,67.80
2018-05-06T05:04:13.700Z,65.70
2018-05-06T05:06:40.706Z,65.40
2018-05-06T05:09:08.366Z,69.00
2018-05-06T05:11:36.026Z,69.50
2018-05-06T05:14:03.710Z,66.40
2018-05-06T05:16:30.575Z,66.40
2018-05-06T05:18:57.504Z,63.20
2018-05-06T05:21:24.359Z,64.20
2018-05-06T05:23:51.308Z,66.50
2018-05-06T05:26:18.182Z,65.00
2018-05-06T05:28:45.095Z,67.60
2018-05-06T05:31:11.953Z,68.20
2018-05-06T05:33:38.878Z,70.30
2018-05-06T05:36:05.748Z,73.00
2018-05-06T05:38:32.669Z,74.60
2018-05-06T05:40:59.530Z,74.60
2018-05-06T05:43:26.469Z,75.80
2018-05-06T05:45:53.331Z,77.10
2018-05-06T05:48:20.239Z,78.70
2018-05-06T05:50:47.104Z,78.40
2018-05-06T05:53:14.023Z,78.00
2018-05-06T05:55:40.981Z,79.10
2018-05-06T05:58:07.910Z,78.20
2018-05-06T06:00:34.766Z,79.10
2018-05-06T06:03:01.703Z,78.60
2018-05-06T06:05:28.646Z,78.70
2018-05-06T06:07:55.716Z,77.70
2018-05-06T06:10:22.595Z,77.80
2018-05-06T06:12:49.483Z,77.90
2018-05-06T06:15:16.399Z,77.80
2018-05-06T06:17:43.257Z,78.70
2018-05-06T06:20:10.181Z,77.00
2018-05-06T06:22:37.037Z,77.20
2018-05-06T06:25:04.002Z,77.60
2018-05-06T06:27:31.705Z,75.70
2018-05-06T06:29:58.565Z,75.70
2018-05-06T06:32:25.425Z,75.20
2018-05-06T06:34:52.353Z,76.80
2018-05-06T06:37:19.230Z,75.70
2018-05-06T06:39:46.172Z,72.80
2018-05-06T06:42:13.026Z,74.60
2018-05-06T06:44:40.220Z,73.20
2018-05-06T06:47:07.091Z,73.20
2018-05-06T06:49:34.026Z,71.60
2018-05-06T06:52:00.938Z,71.90
2018-05-06T06:54:27.877Z,73.80
2018-05-06T06:56:55.565Z,71.30
2018-05-06T06:59:22.509Z,71.30
2018-05-06T07:01:49.379Z,72.90
2018-05-06T07:04:16.281Z,72.80
2018-05-06T07:06:43.237Z,73.50
2018-05-06T07:09:10.173Z,72.60
2018-05-06T07:11:37.154Z,72.60
2018-05-06T07:14:04.010Z,72.30
2018-05-06T07:16:30.950Z,73.30
2018-05-06T07:18:57.803Z,73.50
2018-05-06T07:21:24.650Z,72.50
2018-05-06T07:23:51.575Z,74.00
2018-05-06T07:26:18.518Z,71.80
2018-05-06T07:28:45.630Z,72.80
2018-05-06T07:31:12.750Z,72.50
2018-05-06T07:33:40.376Z,69.20
2018-05-06T07:36:08.932Z,66.80
2018-05-06T07:38:36.606Z,67.60
2018-05-06T07:41:03.531Z,67.50
2018-05-06T07:43:31.131Z,67.50
2018-05-06T07:46:05.297Z,67.40
2018-05-06T07:48:32.173Z,67.60
2018-05-06T07:51:00.373Z,66.10
2018-05-06T07:53:37.924Z,68.30
2018-05-06T07:56:16.337Z,65.40
2018-05-06T07:58:44.062Z,65.60
2018-05-06T08:01:10.970Z,65.60
2018-05-06T08:03:37.842Z,67.70
2018-05-06T08:06:04.705Z,65.70
2018-05-06T08:08:31.701Z,65.90
2018-05-06T08:10:59.671Z,61.30
2018-05-06T08:13:26.532Z,61.20
2018-05-06T08:15:53.478Z,53.50
2018-05-06T08:18:20.334Z,45.70
2018-05-06T08:20:47.247Z,45.90
2018-05-06T08:23:14.190Z,42.30
2018-05-06T08:25:41.068Z,38.20
2018-05-06T08:28:07.986Z,36.90
2018-05-06T08:30:35.608Z,35.90
2018-05-06T08:33:02.510Z,35.80
2018-05-06T08:35:29.362Z,32.90
2018-05-06T08:37:56.275Z,33.90
2018-05-06T08:40:23.132Z,30.30
2018-05-06T08:42:50.078Z,30.80
2018-05-06T08:45:16.933Z,31.20
2018-05-06T08:47:43.790Z,31.30
2018-05-06T08:50:10.718Z,32.30
2018-05-06T08:52:37.652Z,32.00
2018-05-06T08:55:05.239Z,30.70
2018-05-06T08:57:32.093Z,30.50
2018-05-06T08:59:59.890Z,30.80
2018-05-06T09:02:26.891Z,35.40
2018-05-06T09:04:53.781Z,31.40
2018-05-06T09:07:21.393Z,32.60
2018-05-06T09:09:48.360Z,33.70
2018-05-06T09:12:15.641Z,34.50
2018-05-06T09:14:44.329Z,36.40
2018-05-06T09:17:11.206Z,34.20
2018-05-06T09:19:38.917Z,36.50
2018-05-06T09:22:05.791Z,36.40
2018-05-06T09:24:32.731Z,35.10
2018-05-06T09:26:59.598Z,36.10
2018-05-06T09:29:26.525Z,35.40
2018-05-06T09:31:53.475Z,35.00
2018-05-06T09:34:20.414Z,36.80
2018-05-06T09:36:47.348Z,36.70
2018-05-06T09:39:14.192Z,34.40
2018-05-06T09:41:41.057Z,32.80
2018-05-06T09:44:08.500Z,35.10
2018-05-06T09:46:36.744Z,36.70
2018-05-06T09:49:06.734Z,33.60
2018-05-06T09:51:33.685Z,34.80
2018-05-06T09:54:00.926Z,31.60
2018-05-06T09:56:28.590Z,35.80
2018-05-06T09:59:09.193Z,35.30
2018-05-06T10:04:33.972Z,35.70
2018-05-06T10:07:01.952Z,36.00
2018-05-06T10:09:28.958Z,40.00
2018-05-06T10:12:02.480Z,37.80
2018-05-06T10:14:31.241Z,37.50
2018-05-06T10:16:58.177Z,37.40
2018-05-06T10:19:29.990Z,37.90
2018-05-06T10:22:03.284Z,35.60
2018-05-06T10:24:31.585Z,37.70
2018-05-06T10:27:07.012Z,35.80
2018-05-06T10:29:35.530Z,37.30
2018-05-06T10:32:03.597Z,37.30
2018-05-06T10:34:31.436Z,37.90
2018-05-06T10:37:04.534Z,35.60
2018-05-06T10:39:39.897Z,35.60
2018-05-06T10:42:07.420Z,35.90
2018-05-06T10:44:35.218Z,33.60
2018-05-06T10:47:02.631Z,36.50
2018-05-06T10:49:30.318Z,35.90
2018-05-06T10:51:57.253Z,35.90
2018-05-06T10:54:30.459Z,33.50
2018-05-06T10:57:01.407Z,33.50
2018-05-06T10:59:32.340Z,34.30
2018-05-06T11:02:01.381Z,35.10
2018-05-06T11:04:37.693Z,36.10
2018-05-06T11:07:05.358Z,34.10
2018-05-06T11:09:32.309Z,34.00
2018-05-06T11:11:59.914Z,34.60
2018-05-06T11:14:26.825Z,34.50
2018-05-06T11:16:53.774Z,33.70
2018-05-06T11:19:20.754Z,33.10
2018-05-06T11:21:47.662Z,34.50
2018-05-06T11:24:14.529Z,34.70
2018-05-06T11:26:41.491Z,33.10
2018-05-06T11:29:16.442Z,33.70
2018-05-06T11:31:46.515Z,33.80
2018-05-06T11:34:13.686Z,32.80
2018-05-06T11:36:40.632Z,33.70
2018-05-06T11:39:07.501Z,34.50
2018-05-06T11:44:26.385Z,33.40
2018-05-06T11:46:53.297Z,33.40
2018-05-06T11:49:20.156Z,34.90
2018-05-06T11:51:47.081Z,32.20
2018-05-06T11:54:13.987Z,34.40
2018-05-06T11:56:41.119Z,33.50
2018-05-06T11:59:08.041Z,34.50
2018-05-06T12:01:34.970Z,33.70
2018-05-06T12:04:01.900Z,34.70
2018-05-06T12:06:28.750Z,35.30
2018-05-06T12:08:55.810Z,35.90
2018-05-06T12:11:22.670Z,35.10
2018-05-06T12:13:49.583Z,34.80
2018-05-06T12:16:16.503Z,32.70
2018-05-06T12:18:44.239Z,34.60
2018-05-06T12:21:11.117Z,34.50
2018-05-06T12:23:38.059Z,34.80
2018-05-06T12:26:05.721Z,34.90
2018-05-06T12:28:33.322Z,36.20
2018-05-06T12:31:00.242Z,36.20
2018-05-06T12:33:27.110Z,35.20
2018-05-06T12:35:54.032Z,35.10
2018-05-06T12:38:20.899Z,36.10
2018-05-06T12:40:47.845Z,34.30
2018-05-06T12:43:14.747Z,35.80
2018-05-06T12:45:42.480Z,35.60
2018-05-06T12:48:09.338Z,35.60
2018-05-06T12:50:36.232Z,34.00
2018-05-06T12:53:03.157Z,35.50
2018-05-06T12:55:30.753Z,36.10
2018-05-06T12:57:57.690Z,36.20
2018-05-06T13:00:24.570Z,34.50
2018-05-06T13:02:51.515Z,35.10
2018-05-06T13:05:18.386Z,35.50
2018-05-06T13:07:45.311Z,35.60
2018-05-06T13:10:12.245Z,34.60
2018-05-06T13:12:39.107Z,36.60
2018-05-06T13:15:06.113Z,36.30
2018-05-06T13:17:33.042Z,36.40
2018-05-06T13:19:59.925Z,36.10
2018-05-06T13:22:26.781Z,36.70
2018-05-06T13:24:53.708Z,35.10
2018-05-06T13:27:20.702Z,35.50
2018-05-06T13:29:48.332Z,36.20
2018-05-06T13:32:15.331Z,36.20
2018-05-06T13:34:42.329Z,36.20
2018-05-06T13:37:09.267Z,35.00
2018-05-06T13:39:36.157Z,34.70
2018-05-06T13:42:03.947Z,35.80
2018-05-06T13:44:30.797Z,35.70
2018-05-06T13:46:57.806Z,36.90
2018-05-06T13:49:25.469Z,34.80
2018-05-06T13:51:53.145Z,35.30
2018-05-06T13:54:20.757Z,36.50
2018-05-06T13:56:47.714Z,36.50
2018-05-06T13:59:16.462Z,37.00
2018-05-06T14:01:43.390Z,37.00
2018-05-06T14:04:11.078Z,34.90
2018-05-06T14:06:38.006Z,34.90
2018-05-06T14:09:05.035Z,38.50
2018-05-06T14:11:31.970Z,36.60
2018-05-06T14:13:58.832Z,36.70
2018-05-06T14:16:26.498Z,36.80
2018-05-06T14:18:54.120Z,35.90
2018-05-06T14:21:21.107Z,35.90
2018-05-06T14:23:48.710Z,36.40
2018-05-06T14:26:15.579Z,36.30
2018-05-06T14:28:42.510Z,37.40
2018-05-06T14:31:09.374Z,35.90
2018-05-06T14:33:36.289Z,36.30
2018-05-06T14:36:03.224Z,37.00
2018-05-06T14:38:30.088Z,37.30
2018-05-06T14:40:57.026Z,36.60
2018-05-06T14:43:23.891Z,36.90
2018-05-06T14:45:50.751Z,36.60
2018-05-06T14:48:17.743Z,36.90
2018-05-06T14:50:44.603Z,36.60
2018-05-06T14:53:11.469Z,37.10
2018-05-06T14:55:38.413Z,38.30
2018-05-06T14:58:05.320Z,37.80
2018-05-06T15:00:32.222Z,38.40
2018-05-06T15:02:59.175Z,36.30
2018-05-06T15:05:26.041Z,36.00
2018-05-06T15:07:53.701Z,36.70
2018-05-06T15:10:21.514Z,35.90
2018-05-06T15:12:48.429Z,35.90
2018-05-06T15:15:15.294Z,36.40
2018-05-06T15:17:42.205Z,36.80
2018-05-06T15:20:09.822Z,37.40
2018-05-06T15:22:36.777Z,37.40
2018-05-06T15:25:03.691Z,36.20
2018-05-06T15:27:30.537Z,36.50
2018-05-06T15:29:57.475Z,36.50
2018-05-06T15:32:24.374Z,36.60
2018-05-06T15:34:51.305Z,36.60
2018-05-06T15:37:18.255Z,37.70
2018-05-06T15:39:45.124Z,37.70
2018-05-06T15:42:12.729Z,37.90
2018-05-06T15:44:39.662Z,37.90
2018-05-06T15:47:06.593Z,36.90
2018-05-06T15:49:34.274Z,37.80
2018-05-06T15:52:01.195Z,37.80
2018-05-06T15:54:28.084Z,37.20
2018-05-06T15:56:55.053Z,37.80
2018-05-06T15:59:21.997Z,37.40
2018-05-06T16:02:00.974Z,38.50
2018-05-06T16:04:27.901Z,37.30
2018-05-06T16:06:54.778Z,37.80
2018-05-06T16:09:21.726Z,37.90
2018-05-06T16:11:48.754Z,37.60
2018-05-06T16:14:15.641Z,37.50
2018-05-06T16:16:42.584Z,37.10
2018-05-06T16:19:09.563Z,38.10
2018-05-06T16:21:36.600Z,37.70
2018-05-06T16:24:03.541Z,38.60
2018-05-06T16:26:30.481Z,37.10
2018-05-06T16:28:57.419Z,36.90
2018-05-06T16:31:24.373Z,35.90
2018-05-06T16:33:51.260Z,36.30
2018-05-06T16:36:18.213Z,35.80
2018-05-06T16:38:47.432Z,36.00
2018-05-06T16:41:16.189Z,37.10
2018-05-06T16:43:50.710Z,37.80
2018-05-06T16:46:19.063Z,38.30
2018-05-06T16:48:46.019Z,37.70
2018-05-06T16:51:17.195Z,37.60
2018-05-06T16:53:46.597Z,38.10
2018-05-06T16:56:13.741Z,38.70
2018-05-06T16:58:48.801Z,38.30
2018-05-06T17:01:15.731Z,38.30
2018-05-06T17:03:44.826Z,39.40
2018-05-06T17:06:13.783Z,39.20
2018-05-06T17:08:42.810Z,39.60
2018-05-06T17:11:11.874Z,39.10
2018-05-06T17:13:40.309Z,39.10
2018-05-06T17:16:08.997Z,39.10
2018-05-06T17:18:35.959Z,39.30
2018-05-06T17:21:02.984Z,39.10
2018-05-06T17:23:30.224Z,40.00
2018-05-06T17:25:57.849Z,39.10
2018-05-06T17:28:26.906Z,39.20
2018-05-06T17:31:01.429Z,39.40
2018-05-06T17:33:32.458Z,39.80
2018-05-06T17:36:00.590Z,39.60
2018-05-06T17:38:27.542Z,40.20
2018-05-06T17:40:58.494Z,40.40
2018-05-06T17:43:25.918Z,40.50
2018-05-06T17:45:52.870Z,40.00
2018-05-06T17:48:21.992Z,41.00
2018-05-06T17:50:49.040Z,40.80
2018-05-06T17:53:16.654Z,40.20
2018-05-06T17:55:43.662Z,40.60
2018-05-06T18:00:53.125Z,40.80
2018-05-06T18:03:20.822Z,40.70
2018-05-06T18:05:47.806Z,40.60
2018-05-06T18:08:14.683Z,40.90
2018-05-06T18:10:41.552Z,41.40
2018-05-06T18:13:08.542Z,42.10
2018-05-06T18:15:35.462Z,42.30
2018-05-06T18:18:02.422Z,42.30
2018-05-06T18:20:29.354Z,42.70
2018-05-06T18:22:56.209Z,42.70
2018-05-06T18:25:23.142Z,43.10
2018-05-06T18:27:55.384Z,43.30
2018-05-06T18:30:22.308Z,43.70
2018-05-06T18:32:50.673Z,43.80
2018-05-06T18:35:18.375Z,43.80
2018-05-06T18:37:45.985Z,43.90
2018-05-06T18:40:14.066Z,44.30
2018-05-06T18:42:41.681Z,44.00
2018-05-06T18:45:09.429Z,44.40
2018-05-06T18:47:38.345Z,44.20
2018-05-06T18:50:05.319Z,44.20
2018-05-06T18:52:32.264Z,44.40
2018-05-06T18:54:59.234Z,44.40
2018-05-06T18:57:26.183Z,44.70
2018-05-06T18:59:53.084Z,44.70
2018-05-06T19:02:19.953Z,45.10
2018-05-06T19:04:46.888Z,45.60
2018-05-06T19:07:13.815Z,45.10
2018-05-06T19:09:40.794Z,45.10
2018-05-06T19:12:14.849Z,44.70
2018-05-06T19:14:41.926Z,44.80
2018-05-06T19:17:11.471Z,44.70
2018-05-06T19:19:38.355Z,45.20
2018-05-06T19:22:09.452Z,45.10
2018-05-06T19:24:36.628Z,45.20
2018-05-06T19:27:07.810Z,45.20
2018-05-06T19:29:34.944Z,45.60
2018-05-06T19:32:02.584Z,45.40
2018-05-06T19:34:30.082Z,45.70
2018-05-06T19:36:57.898Z,46.10
2018-05-06T19:39:25.527Z,46.00
2018-05-06T19:41:53.382Z,46.40
2018-05-06T19:44:21.768Z,46.40
2018-05-06T19:46:48.730Z,47.00
2018-05-06T19:49:24.128Z,47.30
2018-05-06T19:51:51.795Z,47.30
2018-05-06T19:54:20.127Z,47.80
2018-05-06T19:56:47.181Z,48.10
2018-05-06T19:59:15.752Z,48.90
2018-05-06T20:01:43.317Z,49.40
2018-05-06T20:04:10.196Z,50.20
2018-05-06T20:06:37.821Z,51.80
2018-05-06T20:09:15.489Z,51.80
2018-05-06T20:11:43.376Z,51.80
2018-05-06T20:14:10.311Z,52.20
2018-05-06T20:16:37.333Z,52.70
2018-05-06T20:19:04.254Z,52.90
2018-05-06T20:21:31.275Z,53.30
2018-05-06T20:23:58.259Z,53.60
2018-05-06T20:26:25.938Z,54.00
2018-05-06T20:28:52.819Z,54.00
2018-05-06T20:31:19.746Z,54.30
2018-05-06T20:33:46.723Z,54.80
2018-05-06T20:36:13.590Z,55.00
2018-05-06T20:38:40.590Z,55.10
2018-05-06T20:41:07.541Z,55.30
2018-05-06T20:43:34.474Z,55.60
2018-05-06T20:46:02.215Z,55.80
2018-05-06T20:48:29.947Z,56.30
2018-05-06T20:50:56.809Z,56.30
2018-05-06T20:53:24.795Z,56.20
2018-05-06T20:55:53.172Z,56.20
2018-05-06T20:58:22.234Z,56.80
2018-05-06T21:00:52.151Z,56.80
2018-05-06T21:03:20.093Z,56.50
2018-05-06T21:05:53.921Z,56.80
2018-05-06T21:08:21.883Z,56.80
2018-05-06T21:10:48.831Z,57.30
2018-05-06T21:13:15.830Z,57.30
2018-05-06T21:15:43.617Z,58.00
2018-05-06T21:18:10.617Z,58.00
2018-05-06T21:20:38.401Z,57.80
2018-05-06T21:23:05.330Z,57.80
2018-05-06T21:25:32.313Z,58.30
2018-05-06T21:27:59.371Z,58.10
2018-05-06T21:30:26.243Z,58.00
2018-05-06T21:32:53.269Z,57.80
2018-05-06T21:35:20.261Z,58.50
2018-05-06T21:37:47.401Z,58.30
2018-05-06T21:40:14.323Z,58.60
2018-05-06T21:42:42.199Z,58.30
2018-05-06T21:45:09.911Z,58.80
2018-05-06T21:47:37.620Z,58.40
2018-05-06T21:50:06.210Z,58.60
2018-05-06T21:52:33.166Z,59.00
2018-05-06T21:55:00.107Z,58.90
2018-05-06T21:57:26.975Z,59.00
2018-05-06T21:59:53.838Z,58.90
2018-05-06T22:02:21.511Z,60.10
2018-05-06T22:04:48.491Z,60.00
2018-05-06T22:07:26.274Z,59.70
2018-05-06T22:09:53.209Z,59.90
2018-05-06T22:12:20.064Z,60.50
2018-05-06T22:14:46.924Z,61.20
2018-05-06T22:17:13.973Z,61.30
2018-05-06T22:19:41.224Z,62.10
2018-05-06T22:22:08.162Z,62.40
2018-05-06T22:24:35.033Z,62.70
2018-05-06T22:27:01.968Z,63.00
2018-05-06T22:29:28.849Z,63.70
2018-05-06T22:31:55.933Z,64.20
2018-05-06T22:34:22.823Z,65.00
2018-05-06T22:36:49.737Z,65.30
2018-05-06T22:39:16.658Z,65.20
2018-05-06T22:41:44.401Z,66.90
2018-05-06T22:44:11.270Z,66.90
2018-05-06T22:46:38.892Z,67.30
2018-05-06T22:49:05.841Z,67.30
2018-05-06T22:51:32.722Z,67.40
2018-05-06T22:54:00.393Z,67.50
2018-05-06T22:56:27.325Z,67.40
2018-05-06T22:58:54.939Z,67.60
2018-05-06T23:01:21.894Z,67.60
2018-05-06T23:03:48.751Z,67.70
2018-05-06T23:06:15.694Z,67.70
2018-05-06T23:08:42.577Z,67.90
2018-05-06T23:11:09.530Z,68.00
2018-05-06T23:13:36.539Z,68.20
2018-05-06T23:16:03.415Z,68.60
2018-05-06T23:18:30.394Z,68.80
2018-05-06T23:20:57.333Z,68.80
2018-05-06T23:23:24.273Z,69.10
2018-05-06T23:25:51.125Z,69.40
2018-05-06T23:28:18.050Z,70.10
2018-05-06T23:30:44.976Z,70.70
2018-05-06T23:33:12.674Z,71.10
2018-05-06T23:35:39.617Z,71.10
2018-05-06T23:38:06.586Z,71.30
2018-05-06T23:40:33.515Z,71.60
2018-05-06T23:43:00.531Z,71.70
2018-05-06T23:45:27.382Z,72.00
2018-05-06T23:47:54.304Z,72.40
2018-05-06T23:50:21.234Z,72.50
2018-05-06T23:52:48.166Z,72.90
2018-05-06T23:55:15.090Z,73.30
2018-05-06T23:57:42.051Z,73.50
